createdAt,value
2022-12-23T00:01:29.066Z,99721.44
2022-12-23T00:03:58.757Z,99710.25
2022-12-23T00:06:25.215Z,99713.47
2022-12-23T00:08:58.728Z,99702.00
2022-12-23T00:11:26.050Z,99696.88
2022-12-23T00:14:14.780Z,99694.63
2022-12-23T00:16:46.513Z,99692.41
2022-12-23T00:19:12.661Z,99679.84
2022-12-23T00:21:38.793Z,99685.28
2022-12-23T00:24:05.163Z,99682.38
2022-12-23T00:26:31.290Z,99680.41
2022-12-23T00:28:58.774Z,99682.50
2022-12-23T00:31:25.506Z,99676.22
2022-12-23T00:33:53.504Z,99677.59
2022-12-23T00:36:25.670Z,99671.47
2022-12-23T00:39:10.758Z,99666.03
2022-12-23T00:41:55.766Z,99665.03
2022-12-23T00:44:21.889Z,99661.41
2022-12-23T00:46:48.365Z,99661.28
2022-12-23T00:49:34.695Z,99660.28
2022-12-23T00:52:01.782Z,99661.53
2022-12-23T00:54:28.483Z,99664.06
2022-12-23T00:56:54.605Z,99663.94
2022-12-23T00:59:20.733Z,99666.28
2022-12-23T01:02:05.677Z,99679.53
2022-12-23T01:04:50.386Z,99667.28
2022-12-23T01:07:16.532Z,99665.44
2022-12-23T01:09:42.665Z,99658.88
2022-12-23T01:12:09.121Z,99662.38
2022-12-23T01:14:35.773Z,99655.28
2022-12-23T01:17:02.186Z,99649.00
2022-12-23T01:19:29.050Z,99639.66
2022-12-23T01:21:55.323Z,99645.38
2022-12-23T01:24:21.580Z,99644.25
2022-12-23T01:26:47.693Z,99646.34
2022-12-23T01:29:13.842Z,99649.41
2022-12-23T01:31:40.035Z,99632.66
2022-12-23T01:34:06.163Z,99630.69
2022-12-23T01:36:32.321Z,99627.50
2022-12-23T01:38:58.454Z,99622.31
2022-12-23T01:41:46.217Z,99619.81
2022-12-23T01:44:46.258Z,99627.06
2022-12-23T01:47:18.809Z,99629.69
2022-12-23T01:49:46.894Z,99625.75
2022-12-23T01:52:14.283Z,99629.53
2022-12-23T01:54:41.687Z,99626.59
2022-12-23T01:57:07.823Z,99622.25
2022-12-23T01:59:52.498Z,99626.03
2022-12-23T02:02:37.493Z,99622.41
2022-12-23T02:05:03.796Z,99626.47
2022-12-23T02:07:49.465Z,99619.34
2022-12-23T02:10:15.629Z,99630.25
2022-12-23T02:12:52.412Z,99617.81
2022-12-23T02:15:55.447Z,99622.16
2022-12-23T02:18:38.075Z,99623.66
2022-12-23T02:21:23.535Z,99618.09
2022-12-23T02:24:22.412Z,99605.78
2022-12-23T02:26:54.266Z,99599.38
2022-12-23T02:30:03.075Z,99592.94
2022-12-23T02:32:47.539Z,99593.47
2022-12-23T02:35:23.715Z,99589.00
2022-12-23T02:37:59.972Z,99592.34
2022-12-23T02:40:36.553Z,99591.19
2022-12-23T02:43:13.158Z,99583.25
2022-12-23T02:45:45.816Z,99578.63
2022-12-23T02:48:24.702Z,99575.28
2022-12-23T02:50:53.576Z,99573.06
2022-12-23T02:53:27.759Z,99564.16
2022-12-23T02:55:57.017Z,99563.28
2022-12-23T02:58:27.880Z,99559.94
2022-12-23T03:00:55.500Z,99557.97
2022-12-23T03:03:22.462Z,99553.81
2022-12-23T03:05:51.033Z,99551.97
2022-12-23T03:08:24.046Z,99543.75
2022-12-23T03:11:01.907Z,99548.22
2022-12-23T03:13:32.997Z,99553.75
2022-12-23T03:16:24.071Z,99543.84
2022-12-23T03:19:27.691Z,99532.63
2022-12-23T03:22:10.788Z,99538.63
2022-12-23T03:25:04.463Z,99534.13
2022-12-23T03:27:33.265Z,99538.63
2022-12-23T03:30:06.246Z,99538.94
2022-12-23T03:32:53.545Z,99533.22
2022-12-23T03:35:23.900Z,99539.13
2022-12-23T03:37:53.582Z,99534.50
2022-12-23T03:40:24.851Z,99533.91
2022-12-23T03:42:58.628Z,99521.91
2022-12-23T03:45:39.275Z,99518.44
2022-12-23T03:48:13.657Z,99528.19
2022-12-23T03:50:42.903Z,99523.56
2022-12-23T03:53:16.314Z,99524.09
2022-12-23T03:55:48.428Z,99522.69
2022-12-23T03:58:27.101Z,99521.56
2022-12-23T04:01:02.324Z,99516.78
2022-12-23T04:03:38.806Z,99510.94
2022-12-23T04:06:09.939Z,99517.00
2022-12-23T04:08:38.195Z,99517.16
2022-12-23T04:11:05.379Z,99503.28
2022-12-23T04:13:31.909Z,99513.63
2022-12-23T04:15:59.445Z,99509.50
2022-12-23T04:18:25.659Z,99506.56
2022-12-23T04:20:51.766Z,99501.53
2022-12-23T04:23:17.893Z,99495.16
2022-12-23T04:25:44.002Z,99504.50
2022-12-23T04:28:10.148Z,99502.22
2022-12-23T04:30:36.267Z,99496.34
2022-12-23T04:33:03.242Z,99498.81
2022-12-23T04:35:30.604Z,99496.16
2022-12-23T04:37:56.731Z,99496.00
2022-12-23T04:40:22.844Z,99494.03
2022-12-23T04:42:48.972Z,99495.78
2022-12-23T04:45:15.206Z,99492.31
2022-12-23T04:47:41.414Z,99484.56
2022-12-23T04:50:08.141Z,99478.66
2022-12-23T04:52:34.276Z,99490.78
2022-12-23T04:55:00.381Z,99484.63
2022-12-23T04:57:26.526Z,99481.38
2022-12-23T04:59:52.630Z,99484.34
2022-12-23T07:57:37.791Z,99570.31
2022-12-23T08:00:05.946Z,99560.13
2022-12-23T08:02:38.582Z,99560.41
2022-12-23T08:05:06.092Z,99552.44
2022-12-23T08:07:32.264Z,99560.13
2022-12-23T08:09:58.454Z,99567.50
2022-12-23T08:12:25.391Z,99570.53
2022-12-23T08:14:52.727Z,99572.38
2022-12-23T08:17:21.516Z,99585.19
2022-12-23T08:19:48.480Z,99586.03
2022-12-23T08:22:14.678Z,99595.25
2022-12-23T08:24:40.790Z,99591.56
2022-12-23T08:27:07.032Z,99591.56
2022-12-23T08:29:36.358Z,99590.59
2022-12-23T08:32:03.177Z,99583.25
2022-12-23T08:34:29.318Z,99587.69
2022-12-23T08:36:55.443Z,99590.22
2022-12-23T08:39:21.561Z,99590.59
2022-12-23T08:41:48.299Z,99599.84
2022-12-23T08:44:15.439Z,99604.41
2022-12-23T08:46:42.177Z,99598.59
2022-12-23T08:49:09.025Z,99600.63
2022-12-23T08:51:36.222Z,99606.34
2022-12-23T08:54:02.996Z,99605.56
2022-12-23T08:56:32.381Z,99618.63
2022-12-23T08:58:59.508Z,99615.16
2022-12-23T09:01:29.580Z,99616.97
2022-12-23T09:03:56.004Z,99618.66
2022-12-23T09:06:29.576Z,99619.97
2022-12-23T09:08:56.516Z,99614.78
2022-12-23T09:11:25.743Z,99613.63
2022-12-23T09:13:51.967Z,99623.75
2022-12-23T09:16:18.656Z,99623.09
2022-12-23T09:18:44.847Z,99617.59
2022-12-23T09:21:15.011Z,99612.63
2022-12-23T09:23:41.380Z,99627.44
2022-12-23T09:26:08.912Z,99623.34
2022-12-23T09:28:35.187Z,99650.88
2022-12-23T09:31:12.657Z,99657.59
2022-12-23T09:33:39.261Z,99658.44
2022-12-23T09:36:06.500Z,99663.78
2022-12-23T09:38:33.419Z,99659.13
2022-12-23T09:41:30.491Z,99654.19
2022-12-23T09:44:17.514Z,99654.53
2022-12-23T09:46:53.064Z,99655.22
2022-12-23T09:49:22.630Z,99661.53
2022-12-23T09:51:50.863Z,99673.88
2022-12-23T09:54:23.638Z,99679.66
2022-12-23T09:57:16.330Z,99676.50
2022-12-23T10:00:10.987Z,99692.59
2022-12-23T10:02:45.336Z,99692.53
2022-12-23T10:05:43.893Z,99696.94
2022-12-23T10:08:17.558Z,99702.41
2022-12-23T10:10:48.438Z,99706.72
2022-12-23T10:13:26.693Z,99720.47
2022-12-23T10:15:54.582Z,99711.56
2022-12-23T10:18:25.797Z,99713.78
2022-12-23T10:21:29.131Z,99709.94
2022-12-23T10:23:55.676Z,99699.97
2022-12-23T10:26:31.239Z,99690.00
2022-12-23T10:29:15.440Z,99689.81
2022-12-23T10:32:06.992Z,99697.03
2022-12-23T10:34:45.785Z,99705.84
2022-12-23T10:37:20.410Z,99709.13
2022-12-23T10:40:05.392Z,99705.72
2022-12-23T10:42:40.350Z,99718.09
2022-12-23T10:45:24.741Z,99714.22
2022-12-23T10:48:17.904Z,99712.28
2022-12-23T10:51:03.498Z,99717.84
2022-12-23T10:53:39.227Z,99711.47
2022-12-23T10:56:07.370Z,99711.47
2022-12-23T10:58:38.364Z,99712.31
2022-12-23T11:01:15.032Z,99711.16
2022-12-23T11:04:10.282Z,99715.03
2022-12-23T11:06:46.352Z,99719.63
2022-12-23T11:09:22.637Z,99720.31
2022-12-23T11:12:00.899Z,99716.81
2022-12-23T11:14:41.719Z,99709.81
2022-12-23T11:17:24.553Z,99698.75
2022-12-23T11:20:15.341Z,99687.50
2022-12-23T11:22:49.345Z,99696.81
2022-12-23T11:25:29.754Z,99691.22
2022-12-23T11:28:07.627Z,99702.28
2022-12-23T11:30:39.333Z,99706.72
2022-12-23T11:33:06.233Z,99701.91
2022-12-23T11:35:35.729Z,99703.94
2022-12-23T11:38:03.877Z,99717.94
2022-12-23T11:40:37.568Z,99712.19
2022-12-23T11:43:11.559Z,99712.91
2022-12-23T11:45:38.721Z,99718.13
2022-12-23T11:48:06.143Z,99710.16
2022-12-23T11:50:37.996Z,99710.31
2022-12-23T11:53:13.224Z,99720.13
2022-12-23T11:55:48.483Z,99728.59
2022-12-23T11:58:21.177Z,99734.22
2022-12-23T12:00:59.100Z,99730.66
2022-12-23T12:03:30.538Z,99736.47
2022-12-23T12:06:03.560Z,99730.50
2022-12-23T12:08:37.292Z,99733.84
2022-12-23T12:11:14.879Z,99735.50
2022-12-23T12:13:43.570Z,99735.72
2022-12-23T12:16:23.066Z,99749.56
2022-12-23T12:18:55.531Z,99748.72
2022-12-23T12:21:28.131Z,99748.16
2022-12-23T12:24:20.556Z,99751.00
2022-12-23T12:26:52.364Z,99760.50
2022-12-23T12:29:42.088Z,99757.09
2022-12-23T12:32:46.465Z,99758.19
2022-12-23T12:35:21.722Z,99773.63
2022-12-23T12:38:09.269Z,99778.28
2022-12-23T12:40:51.633Z,99773.34
2022-12-23T12:43:27.473Z,99767.38
2022-12-23T12:46:10.219Z,99769.38
2022-12-23T12:49:15.199Z,99766.84
2022-12-23T12:51:57.959Z,99768.00
2022-12-23T12:54:45.565Z,99758.47
2022-12-23T12:57:17.863Z,99750.28
2022-12-23T12:59:45.195Z,99756.38
2022-12-23T13:02:52.300Z,99753.38
2022-12-23T13:05:30.410Z,99753.06
2022-12-23T13:08:26.400Z,99752.25
2022-12-23T13:11:09.658Z,99749.19
2022-12-23T13:13:47.892Z,99748.16
2022-12-23T13:16:36.496Z,99753.97
2022-12-23T13:19:21.406Z,99749.50
2022-12-23T13:21:52.746Z,99753.47
2022-12-23T13:24:50.745Z,99760.13
2022-12-23T13:27:29.003Z,99761.66
2022-12-23T13:30:05.828Z,99754.50
2022-12-23T13:32:49.814Z,99746.78
2022-12-23T13:35:24.853Z,99750.78
2022-12-23T13:38:26.338Z,99754.13
2022-12-23T13:41:04.622Z,99739.59
2022-12-23T13:43:42.668Z,99736.09
2022-12-23T13:46:26.874Z,99736.47
2022-12-23T13:49:00.222Z,99732.59
2022-12-23T13:51:44.609Z,99740.22
2022-12-23T13:54:27.203Z,99740.91
2022-12-23T13:57:22.848Z,99728.88
2022-12-23T14:00:06.022Z,99723.38
2022-12-23T14:02:42.240Z,99728.59
2022-12-23T14:05:35.290Z,99730.59
2022-12-23T14:08:22.719Z,99729.19
2022-12-23T14:11:14.795Z,99733.81
2022-12-23T14:13:44.229Z,99725.09
2022-12-23T14:16:21.691Z,99724.09
2022-12-23T14:19:06.525Z,99727.28
2022-12-23T14:21:51.485Z,99744.19
2022-12-23T14:24:30.801Z,99733.81
2022-12-23T14:27:19.763Z,99736.34
2022-12-23T14:30:16.547Z,99730.25
2022-12-23T14:33:03.294Z,99729.22
2022-12-23T14:35:38.329Z,99724.91
2022-12-23T14:38:15.438Z,99730.38
2022-12-23T14:40:41.565Z,99728.88
2022-12-23T14:43:23.232Z,99729.84
2022-12-23T14:45:54.503Z,99738.84
2022-12-23T14:48:35.913Z,99728.50
2022-12-23T14:51:09.265Z,99731.53
2022-12-23T14:53:54.010Z,99735.19
2022-12-23T14:56:20.095Z,99733.81
2022-12-23T14:58:46.166Z,99742.50
2022-12-23T15:01:33.641Z,99737.25
2022-12-23T15:04:08.146Z,99734.88
2022-12-23T15:06:51.148Z,99732.84
2022-12-23T15:09:49.805Z,99744.66
2022-12-23T15:12:22.281Z,99746.56
2022-12-23T15:14:56.909Z,99754.00
2022-12-23T15:17:32.367Z,99753.53
2022-12-23T15:20:10.363Z,99750.25
2022-12-23T15:22:41.298Z,99754.94
2022-12-23T15:25:29.221Z,99760.25
2022-12-23T15:28:01.431Z,99755.22
2022-12-23T15:30:34.055Z,99756.88
2022-12-23T15:33:16.094Z,99761.91
2022-12-23T15:35:52.717Z,99762.72
2022-12-23T15:38:21.116Z,99767.47
2022-12-23T15:41:14.605Z,99778.94
2022-12-23T15:43:42.228Z,99771.78
2022-12-23T15:46:28.727Z,99780.72
2022-12-23T15:48:56.742Z,99773.03
2022-12-23T15:54:35.092Z,99772.75
2022-12-23T15:57:03.313Z,99772.56
2022-12-23T15:59:34.244Z,99763.16
2022-12-23T16:02:40.540Z,99765.81
2022-12-23T16:05:00.501Z,99758.16
2022-12-23T16:07:35.388Z,99744.28
2022-12-23T16:10:20.994Z,99743.75
2022-12-23T16:12:52.034Z,99754.72
2022-12-23T16:15:29.915Z,99766.88
2022-12-23T16:18:20.643Z,99767.97
2022-12-23T16:21:02.404Z,99756.66
2022-12-23T16:23:30.799Z,99757.53
2022-12-23T16:25:59.904Z,99764.06
2022-12-23T16:28:39.018Z,99757.00
2022-12-23T16:31:07.744Z,99766.09
2022-12-23T16:33:51.436Z,99768.19
2022-12-23T16:36:17.507Z,99764.28
2022-12-23T16:38:44.054Z,99757.06
2022-12-23T16:41:10.449Z,99758.91
2022-12-23T16:43:36.580Z,99750.69
2022-12-23T16:46:03.332Z,99760.59
2022-12-23T16:48:36.489Z,99767.72
2022-12-23T16:51:08.652Z,99768.00
2022-12-23T16:53:34.802Z,99765.78
2022-12-23T16:56:01.520Z,99760.19
2022-12-23T16:58:27.814Z,99746.50
2022-12-23T17:00:54.115Z,99757.13
2022-12-23T17:03:20.703Z,99760.19
2022-12-23T17:05:47.744Z,99763.84
2022-12-23T17:08:14.123Z,99774.88
2022-12-23T17:10:42.540Z,99769.16
2022-12-23T17:13:11.933Z,99772.09
2022-12-23T17:15:38.146Z,99764.00
2022-12-23T17:18:04.377Z,99757.69
2022-12-23T17:20:30.782Z,99751.53
2022-12-23T17:22:59.906Z,99746.38
2022-12-23T17:25:26.714Z,99745.81
2022-12-23T17:27:53.758Z,99733.28
2022-12-23T17:30:23.079Z,99726.03
2022-12-23T17:32:56.484Z,99736.09
2022-12-23T17:35:23.371Z,99741.97
2022-12-23T17:37:49.730Z,99731.91
2022-12-23T17:40:16.560Z,99727.28
2022-12-23T17:42:43.449Z,99722.69
2022-12-23T17:45:27.830Z,99717.81
2022-12-23T17:47:53.982Z,99725.34
2022-12-23T17:50:20.637Z,99722.28
2022-12-23T17:52:46.994Z,99718.91
2022-12-23T17:55:23.039Z,99728.69
2022-12-23T17:57:49.163Z,99719.16
2022-12-23T18:00:25.135Z,99722.47
2022-12-23T18:02:55.836Z,99711.72
2022-12-23T18:05:28.418Z,99711.44
2022-12-23T18:07:57.214Z,99698.69
2022-12-23T18:10:29.227Z,99706.09
2022-12-23T18:13:01.681Z,99703.97
2022-12-23T18:15:35.634Z,99700.47
2022-12-23T18:18:02.659Z,99705.78
2022-12-23T18:20:28.862Z,99701.16
2022-12-23T18:22:55.308Z,99699.03
2022-12-23T18:25:24.614Z,99693.59
2022-12-23T18:27:52.024Z,99693.19
2022-12-23T18:30:18.308Z,99696.53
2022-12-23T18:32:45.149Z,99681.72
2022-12-23T18:35:51.738Z,99684.53
2022-12-23T18:38:18.565Z,99680.06
2022-12-23T18:40:44.804Z,99682.72
2022-12-23T18:43:19.701Z,99680.22
2022-12-23T18:45:50.806Z,99666.38
2022-12-23T18:48:18.885Z,99665.59
2022-12-23T18:50:46.763Z,99670.75
2022-12-23T18:53:23.484Z,99665.84
2022-12-23T18:55:51.011Z,99667.06
2022-12-23T18:58:18.089Z,99667.91
2022-12-23T19:00:44.939Z,99655.06
2022-12-23T19:03:28.913Z,99660.56
2022-12-23T19:05:56.861Z,99656.81
2022-12-23T19:08:27.238Z,99655.97
2022-12-23T19:10:54.552Z,99665.19
2022-12-23T19:13:20.681Z,99670.63
2022-12-23T19:15:46.854Z,99659.88
2022-12-23T19:18:15.372Z,99671.19
2022-12-23T19:20:43.007Z,99667.16
2022-12-23T19:23:09.883Z,99681.69
2022-12-23T19:25:35.997Z,99691.75
2022-12-23T19:28:02.121Z,99679.56
2022-12-23T19:30:29.629Z,99687.09
2022-12-23T19:32:55.782Z,99684.28
2022-12-23T19:35:21.985Z,99687.78
2022-12-23T19:37:48.174Z,99683.97
2022-12-23T19:40:14.283Z,99680.63
2022-12-23T19:42:40.740Z,99678.88
2022-12-23T19:45:08.608Z,99678.59
2022-12-23T19:47:35.139Z,99674.44
2022-12-23T19:50:01.261Z,99679.19
2022-12-23T19:52:27.527Z,99676.28
2022-12-23T19:54:53.630Z,99670.28
2022-12-23T19:57:20.149Z,99676.81
2022-12-23T19:59:46.366Z,99673.34
2022-12-23T20:02:16.736Z,99669.88
2022-12-23T20:04:43.427Z,99675.88
2022-12-23T20:07:09.787Z,99681.34
2022-12-23T20:09:36.549Z,99676.47
2022-12-23T20:12:02.839Z,99672.00
2022-12-23T20:14:32.334Z,99663.91
2022-12-23T20:17:00.360Z,99668.91
2022-12-23T20:19:26.483Z,99661.94
2022-12-23T20:21:52.644Z,99661.66
2022-12-23T20:24:18.908Z,99665.03
2022-12-23T20:26:45.080Z,99656.91
2022-12-23T20:29:11.241Z,99656.06
2022-12-23T20:31:39.105Z,99649.94
2022-12-23T20:34:09.283Z,99653.28
2022-12-23T20:36:36.606Z,99652.84
2022-12-23T20:39:04.094Z,99648.66
2022-12-23T20:41:31.874Z,99646.84
2022-12-23T20:46:44.940Z,99643.50
2022-12-23T20:49:11.142Z,99645.19
2022-12-23T20:51:37.253Z,99633.00
2022-12-23T20:54:03.386Z,99636.34
2022-12-23T20:56:30.442Z,99630.06
2022-12-23T20:59:02.614Z,99634.94
2022-12-23T21:01:35.821Z,99632.88
2022-12-23T21:04:04.848Z,99626.19
2022-12-23T21:06:31.615Z,99630.78
2022-12-23T21:08:59.947Z,99625.75
2022-12-23T21:11:30.861Z,99622.28
2022-12-23T21:14:01.211Z,99619.34
2022-12-23T21:16:32.468Z,99629.81
2022-12-23T21:18:59.551Z,99622.84
2022-12-23T21:21:27.270Z,99624.78
2022-12-23T21:23:55.747Z,99623.81
2022-12-23T21:26:24.292Z,99629.81
2022-12-23T21:28:52.539Z,99622.56
2022-12-23T21:31:21.243Z,99626.47
2022-12-23T21:33:49.077Z,99619.06
2022-12-23T21:36:20.471Z,99617.81
2022-12-23T21:38:48.170Z,99624.50
2022-12-23T21:41:17.839Z,99624.34
2022-12-23T21:43:44.369Z,99625.22
2022-12-23T21:46:13.733Z,99622.56
2022-12-23T21:48:40.607Z,99624.22
2022-12-23T21:51:18.901Z,99621.56
2022-12-23T21:53:46.700Z,99627.88
2022-12-23T21:56:15.225Z,99630.94
2022-12-23T21:58:42.333Z,99627.59
2022-12-23T22:01:20.463Z,99632.06
2022-12-23T22:03:48.703Z,99624.94
2022-12-23T22:06:17.896Z,99621.59
2022-12-23T22:08:44.414Z,99619.91
2022-12-23T22:11:13.388Z,99620.63
2022-12-23T22:13:40.489Z,99622.41
2022-12-23T22:16:10.344Z,99620.34
2022-12-23T22:18:37.505Z,99621.63
2022-12-23T22:21:05.474Z,99625.41
2022-12-23T22:23:31.625Z,99619.81
2022-12-23T22:25:57.824Z,99617.84
2022-12-23T22:28:24.012Z,99615.50
2022-12-23T22:30:50.168Z,99611.97
2022-12-23T22:33:16.451Z,99611.84
2022-12-23T22:35:43.008Z,99618.16
2022-12-23T22:38:09.280Z,99612.84
2022-12-23T22:40:35.752Z,99614.13
2022-12-23T22:43:01.884Z,99609.78
2022-12-23T22:45:28.033Z,99616.91
2022-12-23T22:47:54.194Z,99611.19
2022-12-23T22:50:20.329Z,99607.56
2022-12-23T22:52:46.456Z,99604.03
2022-12-23T22:55:12.573Z,99604.34
2022-12-23T22:57:38.715Z,99603.66
2022-12-23T23:00:11.820Z,99607.13
2022-12-23T23:02:38.796Z,99609.91
2022-12-23T23:05:10.793Z,99605.31
2022-12-23T23:07:38.718Z,99609.91
2022-12-23T23:10:05.839Z,99609.22
2022-12-23T23:12:31.955Z,99601.28
2022-12-23T23:14:58.076Z,99604.22
2022-12-23T23:17:26.173Z,99611.19
2022-12-23T23:19:53.080Z,99600.31
2022-12-23T23:22:21.159Z,99607.00
2022-12-23T23:24:47.338Z,99588.31
2022-12-23T23:27:14.148Z,99592.75
2022-12-23T23:29:40.619Z,99596.09
2022-12-23T23:32:07.539Z,99598.63
2022-12-23T23:34:34.308Z,99598.50
2022-12-23T23:37:01.021Z,99594.19
2022-12-23T23:39:27.149Z,99598.63
2022-12-23T23:41:53.279Z,99596.66
2022-12-23T23:44:19.845Z,99605.88
2022-12-23T23:46:47.169Z,99604.63
2022-12-23T23:49:14.176Z,99606.56
2022-12-23T23:51:41.840Z,99610.22
2022-12-23T23:54:08.312Z,99601.28
2022-12-23T23:56:38.665Z,99609.91
2022-12-23T23:59:05.689Z,99610.63
